Time;durP1;ratioP1;P1;durP2;ratioP2;P2;SDS_P1;SDS_P2;PMS_P1;PMS_P2;Temp;Humidity;BMP_temperature;BMP_pressure;BME280_temperature;BME280_humidity;BME280_pressure;Samples;Min_cycle;Max_cycle;Signal;HPM_P1;HPM_P2
2022/09/11 00:01:11;;;;;;;6.00;4.60;;;17.60;86.40;;;;;;4995864;28;20905;-50
2022/09/11 00:03:37;;;;;;;6.73;4.27;;;17.50;86.50;;;;;;4997165;28;20509;-50
2022/09/11 00:06:07;;;;;;;5.33;4.83;;;17.60;86.20;;;;;;4995933;28;20567;-50
2022/09/11 00:08:34;;;;;;;5.10;4.47;;;17.50;86.30;;;;;;4980642;28;20473;-50
2022/09/11 00:11:07;;;;;;;6.20;5.37;;;17.50;86.40;;;;;;4998259;28;20469;-50
2022/09/11 00:13:35;;;;;;;6.07;5.47;;;17.50;86.60;;;;;;4978613;28;20522;-50
2022/09/11 00:16:06;;;;;;;5.97;5.47;;;17.50;86.70;;;;;;4994633;28;20525;-50
2022/09/11 00:18:37;;;;;;;8.00;6.27;;;17.50;86.60;;;;;;4996956;28;20493;-50
2022/09/11 00:21:06;;;;;;;8.13;6.47;;;17.50;86.60;;;;;;4994480;28;20830;-50
2022/09/11 00:23:33;;;;;;;7.53;6.10;;;17.50;86.20;;;;;;4984131;28;20835;-50
2022/09/11 00:26:03;;;;;;;8.20;7.50;;;17.50;86.10;;;;;;4998209;28;20591;-50
2022/09/11 00:28:30;;;;;;;8.00;7.23;;;17.50;86.00;;;;;;4995373;28;20532;-50
2022/09/11 00:31:01;;;;;;;10.17;8.53;;;17.50;86.20;;;;;;5011086;28;20599;-50
2022/09/11 00:33:28;;;;;;;11.50;8.57;;;17.50;86.20;;;;;;4994553;28;20492;-50
2022/09/11 00:36:02;;;;;;;10.73;9.27;;;17.50;86.10;;;;;;4996333;28;20484;-50
2022/09/11 00:38:31;;;;;;;11.03;9.87;;;17.60;86.00;;;;;;5012221;28;20503;-50
2022/09/11 00:41:00;;;;;;;10.73;9.63;;;17.50;85.90;;;;;;4994802;28;20456;-50
2022/09/11 00:43:29;;;;;;;10.00;8.90;;;17.60;86.00;;;;;;4984107;28;20489;-50
2022/09/11 00:46:03;;;;;;;13.00;10.60;;;17.60;85.60;;;;;;4984635;28;20468;-50
2022/09/11 00:48:33;;;;;;;11.87;10.67;;;17.60;85.70;;;;;;4983922;28;20477;-50
2022/09/11 00:51:03;;;;;;;10.27;9.10;;;17.60;85.70;;;;;;4993384;28;20464;-50
2022/09/11 00:53:34;;;;;;;11.20;10.10;;;17.60;85.50;;;;;;4982786;28;20519;-50
2022/09/11 00:56:04;;;;;;;11.30;10.07;;;17.60;85.50;;;;;;5007221;28;20488;-50
2022/09/11 00:58:36;;;;;;;11.10;9.97;;;17.60;85.20;;;;;;4991683;28;21427;-50
2022/09/11 01:01:03;;;;;;;11.47;10.27;;;17.50;85.50;;;;;;5006117;28;20540;-50
2022/09/11 01:03:33;;;;;;;10.83;9.50;;;17.50;85.90;;;;;;4981115;28;20969;-50
2022/09/11 01:06:01;;;;;;;19.93;10.10;;;17.60;85.10;;;;;;4995958;28;20460;-50
2022/09/11 01:08:27;;;;;;;11.63;10.10;;;17.60;84.80;;;;;;4985928;28;20899;-51
2022/09/11 01:11:16;;;;;;;13.40;10.77;;;17.50;85.50;;;;;;4987857;28;20551;-50
2022/09/11 01:13:55;;;;;;;11.23;10.03;;;17.50;85.60;;;;;;4998237;28;20507;-50
2022/09/11 01:17:03;;;;;;;11.03;9.90;;;17.50;85.00;;;;;;4981051;28;21222;-50
2022/09/11 01:20:19;;;;;;;11.77;10.57;;;17.60;84.70;;;;;;4994449;28;20885;-50
2022/09/11 01:23:25;;;;;;;11.10;9.40;;;17.60;85.20;;;;;;4944385;28;20466;-50
2022/09/11 01:26:04;;;;;;;13.10;10.90;;;17.60;85.40;;;;;;4959341;28;20475;-50
2022/09/11 01:28:48;;;;;;;15.67;12.47;;;17.50;85.50;;;;;;4993869;28;21040;-50
2022/09/11 01:31:28;;;;;;;13.60;11.90;;;17.50;86.10;;;;;;4995728;28;20461;-50
2022/09/11 01:34:05;;;;;;;15.13;13.10;;;17.40;86.60;;;;;;4996039;28;20472;-50
2022/09/11 01:36:39;;;;;;;16.83;13.20;;;17.40;86.70;;;;;;4982987;28;20500;-50
2022/09/11 01:39:06;;;;;;;14.10;12.60;;;17.30;86.80;;;;;;4997467;28;20499;-50
2022/09/11 01:41:59;;;;;;;15.70;12.97;;;17.30;87.10;;;;;;4986760;28;20461;-50
2022/09/11 01:44:49;;;;;;;14.50;12.70;;;17.30;87.40;;;;;;4996954;28;21148;-50
2022/09/11 01:47:17;;;;;;;17.80;13.33;;;17.30;87.50;;;;;;5000536;28;20456;-50
2022/09/11 01:50:01;;;;;;;15.27;12.00;;;17.30;87.40;;;;;;4999602;28;20511;-50
2022/09/11 01:52:35;;;;;;;15.97;12.00;;;17.30;87.50;;;;;;4995215;28;20542;-50
2022/09/11 01:55:21;;;;;;;14.13;12.73;;;17.30;87.60;;;;;;4979809;28;20586;-50
2022/09/11 01:58:02;;;;;;;15.50;12.97;;;17.20;87.90;;;;;;4994036;28;20508;-50
2022/09/11 02:00:34;;;;;;;14.53;12.30;;;17.20;88.40;;;;;;4996372;28;20469;-50
2022/09/11 02:03:14;;;;;;;15.40;13.80;;;17.20;88.20;;;;;;4996983;28;20516;-50
2022/09/11 02:05:51;;;;;;;16.53;14.23;;;17.00;88.90;;;;;;5001141;28;20968;-50
2022/09/11 02:08:30;;;;;;;12.80;11.50;;;17.00;89.30;;;;;;4990917;28;21839;-50
2022/09/11 02:11:04;;;;;;;15.43;12.70;;;17.10;88.70;;;;;;4999020;28;20484;-50
2022/09/11 02:13:52;;;;;;;14.37;12.87;;;17.10;88.70;;;;;;4988710;28;20569;-50
2022/09/11 02:16:39;;;;;;;16.90;13.87;;;17.00;88.70;;;;;;4999350;28;20528;-50
2022/09/11 02:19:10;;;;;;;16.10;13.90;;;16.90;88.90;;;;;;5002690;28;21368;-50
2022/09/11 02:21:37;;;;;;;15.37;13.27;;;17.00;88.90;;;;;;4997125;28;21013;-50
2022/09/11 02:24:04;;;;;;;15.87;12.70;;;17.00;89.00;;;;;;4995266;28;20962;-50
2022/09/11 02:26:35;;;;;;;14.30;12.80;;;17.10;88.80;;;;;;4998336;28;20559;-50
2022/09/11 02:29:02;;;;;;;15.47;13.80;;;17.10;88.70;;;;;;4974974;28;20497;-50
2022/09/11 02:31:28;;;;;;;19.97;13.53;;;17.10;89.20;;;;;;4997272;28;20496;-50
2022/09/11 02:33:56;;;;;;;17.03;13.87;;;17.10;88.70;;;;;;5014053;28;20822;-50
2022/09/11 02:37:00;;;;;;;15.33;13.60;;;17.20;88.70;;;;;;5000512;28;20483;-50
2022/09/11 02:39:30;;;;;;;18.20;13.90;;;17.20;88.70;;;;;;5007943;28;20465;-49
2022/09/11 02:42:18;;;;;;;15.13;13.43;;;17.20;88.20;;;;;;5012510;28;20837;-49
2022/09/11 02:45:16;;;;;;;17.90;14.90;;;17.20;88.20;;;;;;5011243;28;20515;-48
2022/09/11 02:48:14;;;;;;;17.40;14.13;;;17.30;88.00;;;;;;5008679;28;20457;-49
2022/09/11 02:50:43;;;;;;;16.63;13.77;;;17.20;88.20;;;;;;5011156;28;20484;-49
2022/09/11 02:53:32;;;;;;;16.57;14.67;;;17.10;88.40;;;;;;5013050;28;20519;-48
2022/09/11 02:56:02;;;;;;;16.20;13.83;;;17.20;88.40;;;;;;5012410;28;20497;-48
2022/09/11 02:58:40;;;;;;;16.37;13.50;;;17.20;87.90;;;;;;5014369;28;21022;-49
2022/09/11 03:01:07;;;;;;;17.50;13.77;;;17.20;87.60;;;;;;4998283;28;20460;-48
2022/09/11 03:03:39;;;;;;;16.37;14.67;;;17.20;87.70;;;;;;5025808;28;20457;-48
2022/09/11 03:06:11;;;;;;;15.90;13.30;;;17.20;87.40;;;;;;5010562;28;20461;-48
2022/09/11 03:08:37;;;;;;;16.40;12.97;;;17.20;87.40;;;;;;4995165;28;20509;-49
2022/09/11 03:11:04;;;;;;;16.90;13.60;;;17.20;87.40;;;;;;5010193;28;20475;-48
2022/09/11 03:13:31;;;;;;;16.03;13.80;;;17.30;86.80;;;;;;5010487;28;20468;-48
2022/09/11 03:16:00;;;;;;;17.00;13.63;;;17.30;87.10;;;;;;4995777;28;20481;-48
2022/09/11 03:18:26;;;;;;;18.93;15.50;;;17.20;87.10;;;;;;5012830;28;20492;-49
2022/09/11 03:20:53;;;;;;;20.87;16.77;;;17.20;87.00;;;;;;5009288;28;20461;-48
2022/09/11 03:23:22;;;;;;;20.27;16.60;;;17.30;86.90;;;;;;4995621;28;20465;-49
2022/09/11 03:25:49;;;;;;;22.30;17.50;;;17.30;86.70;;;;;;4994062;28;20468;-48
2022/09/11 03:28:15;;;;;;;19.70;14.83;;;17.20;86.70;;;;;;5008613;28;20468;-49
2022/09/11 03:30:42;;;;;;;20.10;17.00;;;17.20;86.80;;;;;;5011603;28;20957;-48
2022/09/11 03:33:09;;;;;;;19.97;16.57;;;17.20;86.80;;;;;;5009046;28;20489;-48
2022/09/11 03:35:35;;;;;;;18.80;15.40;;;17.20;87.20;;;;;;5014873;28;20488;-48
2022/09/11 03:38:02;;;;;;;21.63;16.17;;;17.20;86.90;;;;;;5000065;28;20476;-48
2022/09/11 03:40:28;;;;;;;21.47;16.80;;;17.20;87.00;;;;;;5011948;28;20488;-48
2022/09/11 03:42:55;;;;;;;20.73;17.90;;;17.20;86.90;;;;;;4995924;28;21105;-48
2022/09/11 03:45:22;;;;;;;22.37;19.13;;;17.10;87.50;;;;;;5008792;28;20452;-48
2022/09/11 03:47:48;;;;;;;24.27;17.73;;;17.00;87.90;;;;;;5009744;28;20495;-48
2022/09/11 03:50:15;;;;;;;19.60;16.80;;;17.10;87.70;;;;;;5010254;28;20471;-48
2022/09/11 03:52:42;;;;;;;20.70;16.30;;;17.10;87.20;;;;;;5011241;28;20468;-48
2022/09/11 03:55:09;;;;;;;21.27;16.83;;;17.20;87.10;;;;;;5014251;28;20476;-48
2022/09/11 03:57:37;;;;;;;21.63;17.30;;;17.10;86.90;;;;;;5026358;28;21172;-48
2022/09/11 04:00:05;;;;;;;18.97;15.80;;;17.10;86.90;;;;;;5010206;28;20466;-48
2022/09/11 04:02:32;;;;;;;19.90;17.50;;;17.00;87.50;;;;;;5011656;28;20487;-48
2022/09/11 04:04:58;;;;;;;23.87;18.50;;;16.90;87.90;;;;;;5007081;28;20460;-49
2022/09/11 04:07:25;;;;;;;21.90;18.20;;;16.90;87.90;;;;;;5011903;28;20511;-49
2022/09/11 04:09:51;;;;;;;20.97;16.30;;;16.80;87.70;;;;;;4993617;28;20465;-48
2022/09/11 04:12:18;;;;;;;20.67;17.27;;;16.80;88.20;;;;;;5008590;28;20570;-48
2022/09/11 04:14:45;;;;;;;23.10;18.30;;;16.90;87.90;;;;;;4999620;28;20460;-48
2022/09/11 04:17:11;;;;;;;26.10;17.53;;;16.90;88.00;;;;;;5011122;28;21086;-48
2022/09/11 04:19:38;;;;;;;21.47;17.33;;;16.90;88.30;;;;;;4998832;28;20569;-48
2022/09/11 04:22:04;;;;;;;22.60;18.73;;;16.90;87.90;;;;;;5026316;28;20997;-48
2022/09/11 04:24:31;;;;;;;18.67;15.63;;;16.80;88.30;;;;;;4995779;28;20469;-48
2022/09/11 04:26:59;;;;;;;25.00;17.90;;;16.70;88.60;;;;;;5010682;28;20966;-48
2022/09/11 04:29:27;;;;;;;22.40;17.97;;;16.70;88.90;;;;;;4994073;28;20464;-49
2022/09/11 04:31:54;;;;;;;23.13;17.37;;;16.80;88.70;;;;;;5026201;28;20460;-48
2022/09/11 04:34:21;;;;;;;22.30;17.70;;;16.80;88.60;;;;;;5010625;28;20491;-49
2022/09/11 04:36:48;;;;;;;21.77;17.30;;;16.90;88.10;;;;;;5003030;28;20488;-48
2022/09/11 04:39:15;;;;;;;21.67;16.60;;;16.90;88.20;;;;;;5006632;28;20523;-48
2022/09/11 04:41:43;;;;;;;20.80;17.03;;;16.90;88.40;;;;;;4995266;28;20485;-49
2022/09/11 04:44:10;;;;;;;23.50;17.13;;;16.90;88.20;;;;;;5008465;28;20507;-48
2022/09/11 04:46:36;;;;;;;20.80;16.60;;;16.80;88.80;;;;;;5022999;28;20469;-48
2022/09/11 04:49:03;;;;;;;20.70;16.73;;;16.70;89.40;;;;;;5010975;28;20488;-48
2022/09/11 04:51:37;;;;;;;24.50;17.90;;;16.80;89.20;;;;;;5006413;28;20469;-49
2022/09/11 04:54:05;;;;;;;20.37;17.27;;;16.80;88.50;;;;;;5007226;28;20467;-48
2022/09/11 04:56:36;;;;;;;20.43;17.23;;;16.80;88.60;;;;;;5023705;28;20535;-48
2022/09/11 04:59:12;;;;;;;27.27;18.03;;;16.80;88.70;;;;;;5000101;28;20962;-49
2022/09/11 05:01:39;;;;;;;21.97;18.27;;;16.80;88.80;;;;;;5003156;28;20464;-48
2022/09/11 05:04:07;;;;;;;26.23;19.33;;;16.80;88.60;;;;;;5015466;28;20461;-48
2022/09/11 05:06:36;;;;;;;20.50;16.87;;;16.80;88.60;;;;;;4990015;28;20469;-48
2022/09/11 05:09:07;;;;;;;22.83;17.67;;;16.80;88.40;;;;;;5005623;28;20496;-49
2022/09/11 05:11:34;;;;;;;25.37;19.27;;;16.90;87.80;;;;;;5007440;28;20465;-48
2022/09/11 05:14:01;;;;;;;21.30;17.83;;;16.90;87.70;;;;;;5013135;28;20464;-48
2022/09/11 05:16:29;;;;;;;31.10;21.53;;;16.70;88.50;;;;;;5005711;28;20513;-49
2022/09/11 05:18:58;;;;;;;28.50;22.30;;;16.70;88.70;;;;;;5009405;28;20470;-48
2022/09/11 05:21:26;;;;;;;34.60;22.97;;;16.70;88.80;;;;;;5011860;28;20472;-49
2022/09/11 05:23:56;;;;;;;34.57;23.00;;;16.70;88.70;;;;;;5008439;28;21190;-48
2022/09/11 05:26:31;;;;;;;27.47;20.70;;;16.70;88.70;;;;;;5003542;28;20492;-48
2022/09/11 05:29:01;;;;;;;34.90;21.07;;;16.70;88.80;;;;;;5007621;28;20961;-48
2022/09/11 05:31:28;;;;;;;38.30;24.53;;;16.70;88.60;;;;;;4989563;28;22540;-48
2022/09/11 05:33:55;;;;;;;28.17;22.23;;;16.80;88.30;;;;;;4994455;28;20522;-48
2022/09/11 05:36:23;;;;;;;32.20;22.00;;;16.90;88.10;;;;;;4994354;28;20493;-48
2022/09/11 05:38:51;;;;;;;30.03;21.47;;;16.80;88.30;;;;;;4978304;28;20556;-48
2022/09/11 05:41:18;;;;;;;27.03;20.77;;;16.80;88.30;;;;;;4993887;28;20914;-48
2022/09/11 05:43:45;;;;;;;31.10;22.47;;;16.90;88.10;;;;;;4979245;28;20483;-48
2022/09/11 05:46:16;;;;;;;30.60;21.70;;;16.90;87.90;;;;;;4993753;28;21013;-48
2022/09/11 05:48:44;;;;;;;28.30;21.80;;;16.90;88.00;;;;;;4983090;28;20701;-48
2022/09/11 05:51:15;;;;;;;30.53;20.23;;;16.90;88.10;;;;;;4988842;28;20908;-48
2022/09/11 05:53:43;;;;;;;25.10;18.80;;;16.90;88.10;;;;;;4992017;28;20534;-48
2022/09/11 05:56:14;;;;;;;27.40;20.87;;;16.90;88.10;;;;;;4994405;28;20578;-48
2022/09/11 05:58:42;;;;;;;28.73;19.80;;;16.90;88.20;;;;;;4996764;28;20543;-48
2022/09/11 06:01:18;;;;;;;27.13;19.70;;;16.90;88.50;;;;;;4998301;28;20469;-48
2022/09/11 06:03:48;;;;;;;27.40;20.63;;;16.90;88.50;;;;;;4992752;28;20474;-47
2022/09/11 06:06:16;;;;;;;28.17;20.60;;;16.90;88.60;;;;;;4997687;28;20550;-48
2022/09/11 06:08:43;;;;;;;29.47;21.23;;;16.80;89.00;;;;;;4996622;28;20561;-47
2022/09/11 06:11:12;;;;;;;30.80;21.03;;;16.80;89.20;;;;;;4995992;28;20491;-47
2022/09/11 06:13:41;;;;;;;32.47;23.50;;;16.80;89.30;;;;;;4994143;28;20900;-48
2022/09/11 06:16:13;;;;;;;28.60;20.70;;;16.70;89.70;;;;;;4990623;28;20483;-47
2022/09/11 06:18:47;;;;;;;30.50;22.70;;;16.80;89.50;;;;;;4976652;28;20463;-48
2022/09/11 06:21:21;;;;;;;31.23;20.17;;;16.80;89.30;;;;;;4979797;28;20841;-47
2022/09/11 06:23:49;;;;;;;30.50;20.50;;;16.80;89.20;;;;;;5002917;28;20492;-48
2022/09/11 06:26:20;;;;;;;28.70;20.47;;;16.80;89.60;;;;;;4991817;28;20562;-47
2022/09/11 06:28:47;;;;;;;29.37;19.97;;;16.90;89.40;;;;;;4998577;28;20972;-48
2022/09/11 06:31:16;;;;;;;26.20;19.60;;;16.90;89.30;;;;;;4997839;28;20547;-48
2022/09/11 06:33:43;;;;;;;26.57;20.77;;;16.90;89.40;;;;;;4993395;28;20473;-48
2022/09/11 06:36:16;;;;;;;24.83;19.20;;;16.90;89.20;;;;;;4995026;28;20903;-47
2022/09/11 06:38:43;;;;;;;25.93;19.47;;;16.90;88.90;;;;;;4998570;28;20508;-47
2022/09/11 06:41:13;;;;;;;26.33;20.33;;;16.90;89.00;;;;;;5015278;28;20496;-48
2022/09/11 06:43:41;;;;;;;26.17;18.30;;;16.90;89.00;;;;;;4995751;28;20515;-48
2022/09/11 06:46:14;;;;;;;26.83;18.50;;;16.90;89.00;;;;;;4992932;28;20532;-47
2022/09/11 06:48:42;;;;;;;28.87;19.50;;;16.90;89.00;;;;;;4998114;28;20464;-48
2022/09/11 06:51:12;;;;;;;26.00;17.90;;;17.00;88.80;;;;;;4973158;28;20967;-48
2022/09/11 06:53:41;;;;;;;23.00;16.67;;;17.10;88.40;;;;;;4984314;28;21118;-48
2022/09/11 06:56:13;;;;;;;23.20;16.40;;;17.20;88.30;;;;;;4995420;28;21331;-48
2022/09/11 06:58:40;;;;;;;22.53;16.50;;;17.20;88.30;;;;;;4970238;28;21009;-48
2022/09/11 07:01:12;;;;;;;23.83;18.00;;;17.30;88.00;;;;;;4979065;28;20732;-48
2022/09/11 07:03:44;;;;;;;20.10;15.33;;;17.40;88.00;;;;;;4984541;28;20461;-48
2022/09/11 07:06:12;;;;;;;23.17;17.37;;;17.50;87.40;;;;;;4992116;28;20497;-48
2022/09/11 07:08:40;;;;;;;22.07;16.10;;;17.50;87.50;;;;;;4993241;28;20588;-48
2022/09/11 07:11:07;;;;;;;21.97;15.83;;;17.50;87.40;;;;;;4996864;28;20468;-48
2022/09/11 07:13:36;;;;;;;20.17;15.10;;;17.60;87.00;;;;;;4984858;28;20909;-48
2022/09/11 07:16:06;;;;;;;24.57;18.10;;;17.70;87.00;;;;;;4995741;28;20488;-48
2022/09/11 07:18:38;;;;;;;21.43;15.07;;;17.70;87.00;;;;;;4990924;28;21221;-48
2022/09/11 07:21:06;;;;;;;23.60;15.50;;;17.80;86.70;;;;;;4997249;28;20514;-48
2022/09/11 07:23:39;;;;;;;20.40;14.80;;;17.80;86.80;;;;;;4992584;28;20827;-48
2022/09/11 07:26:10;;;;;;;18.63;14.53;;;17.80;86.60;;;;;;4984264;28;21257;-48
2022/09/11 07:28:38;;;;;;;20.93;16.03;;;17.80;86.70;;;;;;4996458;28;20495;-48
2022/09/11 07:31:12;;;;;;;20.40;14.73;;;17.90;86.60;;;;;;4979600;28;20561;-48
2022/09/11 07:33:47;;;;;;;20.90;15.27;;;17.90;86.40;;;;;;5009974;28;20510;-47
2022/09/11 07:36:20;;;;;;;20.37;15.83;;;18.00;86.50;;;;;;4995929;28;20495;-48
2022/09/11 07:38:47;;;;;;;19.80;15.97;;;18.00;86.30;;;;;;4977738;28;20544;-48
2022/09/11 07:41:16;;;;;;;24.83;16.47;;;18.10;86.10;;;;;;4998328;28;20492;-48
2022/09/11 07:43:49;;;;;;;20.83;14.00;;;18.10;86.00;;;;;;4995493;28;20460;-48
2022/09/11 07:46:16;;;;;;;24.90;17.33;;;18.20;85.90;;;;;;4992291;28;20475;-48
2022/09/11 07:48:43;;;;;;;31.83;20.97;;;18.20;85.90;;;;;;4998909;28;20448;-48
2022/09/11 07:51:12;;;;;;;30.20;20.47;;;18.40;84.70;;;;;;4979574;28;20543;-48
2022/09/11 07:53:48;;;;;;;32.10;21.33;;;18.40;84.60;;;;;;4980195;28;20489;-48
2022/09/11 07:56:18;;;;;;;32.20;19.30;;;18.50;84.10;;;;;;4996982;28;20468;-48
2022/09/11 07:58:45;;;;;;;29.37;18.97;;;18.50;83.70;;;;;;4993174;28;20520;-48
2022/09/11 08:01:18;;;;;;;32.43;20.60;;;18.60;83.80;;;;;;4968467;28;21009;-48
2022/09/11 08:03:45;;;;;;;27.67;20.17;;;18.70;83.50;;;;;;4993630;28;20460;-48
2022/09/11 08:06:17;;;;;;;24.50;18.33;;;18.80;82.40;;;;;;4979201;28;20461;-48
2022/09/11 08:08:55;;;;;;;26.53;19.93;;;18.90;82.50;;;;;;4979723;28;21064;-48
2022/09/11 08:11:23;;;;;;;27.47;19.13;;;19.00;81.20;;;;;;4995249;28;20511;-48
2022/09/11 08:13:51;;;;;;;28.47;18.57;;;19.10;81.00;;;;;;4990962;28;20906;-48
2022/09/11 08:16:19;;;;;;;26.90;18.73;;;19.20;80.60;;;;;;4980554;28;20548;-48
2022/09/11 08:18:47;;;;;;;28.40;18.37;;;19.30;79.90;;;;;;4989855;28;20452;-48
2022/09/11 08:21:14;;;;;;;28.73;20.30;;;19.40;80.00;;;;;;4980519;28;20457;-48
2022/09/11 08:23:43;;;;;;;23.63;17.83;;;19.50;79.10;;;;;;4980620;28;20488;-48
2022/09/11 08:26:12;;;;;;;24.23;18.60;;;19.50;79.20;;;;;;4996802;28;20453;-48
2022/09/11 08:28:43;;;;;;;23.90;18.30;;;19.50;79.80;;;;;;4961436;28;21096;-47
2022/09/11 08:31:11;;;;;;;23.07;16.23;;;19.50;79.30;;;;;;4990881;28;20457;-48
2022/09/11 08:33:38;;;;;;;21.97;16.87;;;19.50;79.60;;;;;;4988164;28;20456;-48
2022/09/11 08:36:08;;;;;;;20.40;14.20;;;19.60;79.20;;;;;;4994639;28;21071;-57
2022/09/11 08:38:36;;;;;;;20.27;15.87;;;19.60;78.90;;;;;;4984689;28;20555;-48
2022/09/11 08:41:10;;;;;;;21.30;15.43;;;19.60;78.90;;;;;;4983082;28;20461;-48
2022/09/11 08:43:44;;;;;;;21.77;15.93;;;19.70;78.40;;;;;;4999439;28;20548;-47
2022/09/11 08:46:11;;;;;;;23.87;16.50;;;19.60;78.60;;;;;;4996984;28;20484;-47
2022/09/11 08:48:55;;;;;;;19.50;15.30;;;19.70;77.50;;;;;;4994006;28;20508;-47
2022/09/11 08:51:24;;;;;;;18.47;14.10;;;19.70;77.90;;;;;;4997248;28;20998;-48
2022/09/11 08:53:53;;;;;;;18.10;14.73;;;19.70;78.30;;;;;;4998715;28;20499;-47
2022/09/11 08:56:22;;;;;;;21.20;15.20;;;19.80;78.10;;;;;;4998642;28;20990;-48
2022/09/11 08:58:49;;;;;;;18.97;14.00;;;19.80;78.10;;;;;;4977215;28;20555;-48
2022/09/11 09:01:37;;;;;;;16.37;14.00;;;19.80;77.80;;;;;;4995299;28;20492;-48
2022/09/11 09:04:34;;;;;;;20.10;13.50;;;19.80;77.90;;;;;;5009515;28;20465;-47
2022/09/11 09:07:37;;;;;;;16.57;12.27;;;19.80;77.80;;;;;;4996655;28;20449;-48
2022/09/11 09:10:42;;;;;;;17.60;12.77;;;19.90;77.70;;;;;;4999058;28;20539;-48
2022/09/11 09:13:50;;;;;;;15.10;12.87;;;19.90;77.70;;;;;;4978745;28;20493;-47
2022/09/11 09:16:42;;;;;;;16.37;11.13;;;19.90;77.70;;;;;;4996029;28;20889;-52
2022/09/11 09:19:16;;;;;;;13.07;11.70;;;19.90;77.40;;;;;;5009728;28;21168;-47
2022/09/11 09:21:58;;;;;;;12.33;10.50;;;19.90;77.20;;;;;;4981878;28;20472;-47
2022/09/11 09:24:30;;;;;;;15.00;12.00;;;19.90;77.40;;;;;;4994376;28;20575;-47
2022/09/11 09:26:58;;;;;;;12.23;10.17;;;19.90;77.50;;;;;;4977710;28;20513;-48
2022/09/11 09:29:35;;;;;;;12.33;11.03;;;19.90;77.30;;;;;;4986632;28;20457;-48
2022/09/11 09:32:12;;;;;;;11.93;10.37;;;20.10;76.60;;;;;;4985466;28;20479;-48
2022/09/11 09:34:42;;;;;;;12.77;10.23;;;20.10;76.70;;;;;;5000460;28;20530;-47
2022/09/11 09:37:22;;;;;;;13.67;10.33;;;20.10;77.30;;;;;;5011711;28;20492;-47
2022/09/11 09:39:50;;;;;;;12.20;9.33;;;20.20;76.30;;;;;;4996688;28;20547;-47
2022/09/11 09:42:28;;;;;;;12.10;10.20;;;20.20;75.80;;;;;;5001311;28;20539;-48
2022/09/11 09:45:19;;;;;;;12.53;9.47;;;20.10;75.90;;;;;;4993976;28;21119;-47
2022/09/11 09:47:48;;;;;;;11.40;9.80;;;20.10;76.00;;;;;;4997526;28;20570;-48
2022/09/11 09:50:44;;;;;;;14.87;9.50;;;20.00;76.00;;;;;;5011721;28;20965;-48
2022/09/11 09:53:32;;;;;;;10.30;8.53;;;20.00;76.10;;;;;;4991381;28;21136;-48
2022/09/11 09:55:59;;;;;;;13.83;9.60;;;19.90;76.70;;;;;;5011522;28;20503;-47
2022/09/11 09:58:32;;;;;;;10.53;9.10;;;19.80;76.90;;;;;;4999064;28;20504;-48
2022/09/11 10:00:58;;;;;;;10.40;8.50;;;19.80;76.90;;;;;;4996210;28;20568;-48
2022/09/11 10:03:25;;;;;;;11.37;7.83;;;19.80;77.00;;;;;;4980044;28;20862;-47
2022/09/11 10:05:54;;;;;;;10.50;7.87;;;19.80;77.00;;;;;;4995906;28;20555;-47
2022/09/11 10:08:25;;;;;;;9.50;8.37;;;19.80;77.30;;;;;;4994829;28;20599;-48
2022/09/11 10:10:57;;;;;;;9.93;8.03;;;19.80;77.30;;;;;;5012755;28;20536;-48
2022/09/11 10:13:27;;;;;;;9.17;8.27;;;19.80;76.90;;;;;;4999344;28;20563;-48
2022/09/11 10:16:00;;;;;;;10.10;7.90;;;19.70;77.00;;;;;;4997426;28;20968;-47
2022/09/11 10:18:31;;;;;;;8.53;7.00;;;19.70;77.30;;;;;;4985827;28;21025;-48
2022/09/11 10:21:36;;;;;;;9.03;7.70;;;19.70;77.50;;;;;;5000689;28;20547;-47
2022/09/11 10:24:19;;;;;;;12.30;7.17;;;19.60;77.60;;;;;;4997202;28;20493;-47
2022/09/11 10:26:49;;;;;;;9.13;8.20;;;19.60;77.70;;;;;;4995388;28;20525;-47
2022/09/11 10:29:23;;;;;;;10.00;8.77;;;19.60;77.90;;;;;;4995470;28;20519;-47
2022/09/11 10:32:01;;;;;;;8.33;7.47;;;19.60;77.90;;;;;;4990917;28;20526;-47
2022/09/11 10:34:35;;;;;;;8.07;6.80;;;19.60;77.90;;;;;;5012506;28;21031;-48
2022/09/11 10:37:24;;;;;;;8.67;6.77;;;19.60;77.70;;;;;;4981787;28;20456;-48
2022/09/11 10:39:52;;;;;;;12.27;9.70;;;19.60;77.70;;;;;;4984164;28;20468;-48
2022/09/11 10:42:26;;;;;;;10.60;8.47;;;19.60;77.60;;;;;;4991964;28;20496;-47
2022/09/11 10:45:00;;;;;;;10.30;8.60;;;19.60;77.80;;;;;;4989906;28;23224;-47
2022/09/11 10:47:30;;;;;;;10.33;8.33;;;19.80;76.30;;;;;;5010405;28;20551;-48
2022/09/11 10:50:16;;;;;;;10.60;7.93;;;19.70;76.50;;;;;;4992672;28;20472;-47
2022/09/11 10:53:18;;;;;;;10.20;8.47;;;19.70;77.10;;;;;;5017480;28;20856;-47
2022/09/11 10:55:56;;;;;;;11.67;8.60;;;19.90;76.60;;;;;;5013914;28;20478;-48
2022/09/11 10:58:28;;;;;;;9.40;8.03;;;19.90;76.10;;;;;;5009355;28;20485;-48
2022/09/11 11:00:55;;;;;;;11.50;8.57;;;20.00;76.00;;;;;;5012679;28;20453;-48
2022/09/11 11:03:26;;;;;;;8.90;7.77;;;20.00;75.80;;;;;;5009158;28;20458;-48
2022/09/11 11:06:24;;;;;;;10.20;7.60;;;20.20;74.80;;;;;;4993454;28;20464;-48
2022/09/11 11:08:53;;;;;;;7.77;7.07;;;20.20;74.90;;;;;;4991263;28;20477;-48
2022/09/11 11:11:21;;;;;;;8.57;7.40;;;20.20;75.00;;;;;;5006733;28;21073;-48
2022/09/11 11:14:03;;;;;;;7.40;6.70;;;20.20;75.00;;;;;;4988970;28;20463;-49
2022/09/11 11:16:44;;;;;;;6.80;5.90;;;20.30;74.20;;;;;;4982895;28;20551;-48
2022/09/11 11:19:22;;;;;;;6.80;6.10;;;20.40;73.10;;;;;;5001300;28;21028;-48
2022/09/11 11:22:07;;;;;;;7.80;6.60;;;20.40;72.80;;;;;;4999813;28;20484;-48
2022/09/11 11:24:33;;;;;;;7.00;6.27;;;20.40;73.40;;;;;;5001124;28;20920;-49
2022/09/11 11:27:15;;;;;;;7.50;6.70;;;20.30;73.80;;;;;;4995725;28;20577;-49
2022/09/11 11:30:16;;;;;;;8.03;7.33;;;20.30;74.20;;;;;;4996334;28;20456;-49
2022/09/11 11:33:00;;;;;;;8.70;6.47;;;20.30;74.30;;;;;;4977516;28;20495;-50
2022/09/11 11:35:40;;;;;;;8.10;7.20;;;20.30;74.50;;;;;;4988255;28;20475;-49
2022/09/11 11:38:19;;;;;;;8.37;6.70;;;20.40;73.70;;;;;;4983255;28;20944;-49
2022/09/11 11:41:01;;;;;;;9.63;8.13;;;20.50;73.80;;;;;;5005369;28;20557;-49
2022/09/11 11:43:32;;;;;;;8.50;7.00;;;20.60;72.60;;;;;;4985488;28;21051;-49
2022/09/11 11:46:29;;;;;;;8.73;6.70;;;20.50;72.70;;;;;;5003248;28;20927;-49
2022/09/11 11:49:08;;;;;;;8.47;7.30;;;20.60;72.70;;;;;;5000804;28;20460;-49
2022/09/11 11:51:47;;;;;;;7.90;6.20;;;20.50;73.30;;;;;;5000440;28;20557;-50
2022/09/11 11:54:40;;;;;;;10.30;7.53;;;20.50;74.00;;;;;;4983274;28;20464;-49
2022/09/11 11:57:19;;;;;;;7.53;6.40;;;20.50;74.20;;;;;;4977108;28;20485;-49
2022/09/11 11:59:56;;;;;;;6.87;5.73;;;20.50;74.40;;;;;;5002237;28;20541;-50
2022/09/11 12:03:06;;;;;;;7.27;5.90;;;20.50;74.30;;;;;;5000280;28;20464;-50
2022/09/11 12:05:33;;;;;;;6.57;5.97;;;20.50;73.90;;;;;;4964881;28;20526;-50
2022/09/11 12:08:00;;;;;;;5.63;5.13;;;20.50;72.70;;;;;;4999849;28;20822;-50
2022/09/11 12:10:37;;;;;;;7.77;6.63;;;20.40;73.10;;;;;;4982546;28;20503;-50
2022/09/11 12:13:16;;;;;;;8.13;6.77;;;20.40;73.30;;;;;;5002194;28;20877;-50
2022/09/11 12:16:18;;;;;;;6.90;6.20;;;20.40;73.20;;;;;;4995457;28;20899;-49
2022/09/11 12:19:19;;;;;;;9.80;6.80;;;20.40;73.10;;;;;;4993953;28;20519;-50
2022/09/11 12:21:52;;;;;;;6.17;5.47;;;20.40;73.10;;;;;;4980692;28;20543;-49
2022/09/11 12:24:48;;;;;;;7.53;6.70;;;20.40;73.10;;;;;;4983604;28;20788;-49
2022/09/11 12:27:33;;;;;;;7.20;5.80;;;20.30;72.60;;;;;;4992370;28;20576;-50
2022/09/11 12:30:26;;;;;;;6.90;6.20;;;20.30;72.80;;;;;;5004211;28;20461;-50
2022/09/11 12:32:54;;;;;;;7.00;6.30;;;20.40;73.00;;;;;;4988996;28;20508;-47
2022/09/11 12:35:33;;;;;;;8.20;6.97;;;20.50;72.90;;;;;;4999910;28;20484;-47
2022/09/11 12:38:13;;;;;;;8.50;6.10;;;20.50;72.90;;;;;;5002121;28;20527;-48
2022/09/11 12:40:58;;;;;;;7.83;6.30;;;20.60;72.80;;;;;;4995746;28;20822;-48
2022/09/11 12:43:34;;;;;;;6.73;5.97;;;20.60;72.70;;;;;;5017109;28;20459;-47
2022/09/11 12:46:20;;;;;;;6.13;5.53;;;20.50;71.80;;;;;;4996828;28;20464;-47
2022/09/11 12:48:52;;;;;;;8.07;7.20;;;20.60;72.00;;;;;;5009804;28;20467;-48
2022/09/11 12:51:43;;;;;;;7.47;6.50;;;20.70;72.10;;;;;;5002817;28;20935;-49
2022/09/11 12:54:20;;;;;;;7.43;6.70;;;20.60;70.80;;;;;;5005915;28;20498;-48
2022/09/11 12:57:02;;;;;;;6.23;5.50;;;20.60;71.10;;;;;;4986363;28;20483;-48
2022/09/11 12:59:33;;;;;;;6.93;6.20;;;20.70;71.30;;;;;;5001526;28;20524;-48
2022/09/11 13:02:02;;;;;;;7.87;6.50;;;20.70;71.30;;;;;;5001113;28;20498;-48
2022/09/11 13:04:30;;;;;;;7.07;6.40;;;20.70;71.40;;;;;;5004882;28;20464;-48
2022/09/11 13:07:02;;;;;;;8.60;7.27;;;20.80;71.60;;;;;;4982858;28;20551;-48